Time;durP1;ratioP1;P1;durP2;ratioP2;P2;SDS_P1;SDS_P2;PMS_P1;PMS_P2;Temp;Humidity;BMP_temperature;BMP_pressure;BME280_temperature;BME280_humidity;BME280_pressure;Samples;Min_cycle;Max_cycle;Signal;HPM_P1;HPM_P2
2021/09/02 00:01:46;;;;;;;16.73;12.23;;;9.60;99.90;;;;;;5027509;28;20073;-91
2021/09/02 00:04:34;;;;;;;19.50;12.60;;;9.60;99.90;;;;;;5038177;28;20109;-92
2021/09/02 00:07:22;;;;;;;18.35;12.50;;;9.60;99.90;;;;;;5035701;28;20145;-92
2021/09/02 00:10:10;;;;;;;19.50;12.98;;;9.60;99.90;;;;;;5033319;28;20095;-90
2021/09/02 00:12:57;;;;;;;22.45;14.00;;;9.60;99.90;;;;;;5034124;28;20113;-91
2021/09/02 00:15:45;;;;;;;21.52;14.05;;;9.70;99.90;;;;;;5043076;28;20085;-91
2021/09/02 00:18:35;;;;;;;16.88;12.55;;;9.70;99.90;;;;;;5046257;28;20056;-90
2021/09/02 00:21:25;;;;;;;15.23;11.57;;;9.60;99.90;;;;;;5033066;28;20128;-90
2021/09/02 00:24:13;;;;;;;17.35;11.75;;;9.60;99.90;;;;;;5021602;28;20099;-91
2021/09/02 00:27:01;;;;;;;22.98;11.93;;;9.50;99.90;;;;;;5022311;28;20048;-91
2021/09/02 00:29:48;;;;;;;16.92;12.52;;;9.50;99.90;;;;;;5027650;28;20075;-90
2021/09/02 00:32:38;;;;;;;24.90;13.63;;;9.40;99.90;;;;;;5035098;28;20116;-91
2021/09/02 00:35:25;;;;;;;17.75;12.82;;;9.50;99.90;;;;;;5029241;28;20087;-90
2021/09/02 00:38:17;;;;;;;18.27;11.95;;;9.50;99.90;;;;;;5029275;28;20049;-90
2021/09/02 00:41:08;;;;;;;17.13;12.00;;;9.40;99.90;;;;;;5026961;28;20152;-92
2021/09/02 00:43:55;;;;;;;15.73;11.80;;;9.40;99.90;;;;;;5028161;28;20046;-90
2021/09/02 00:46:42;;;;;;;20.27;13.00;;;9.40;99.90;;;;;;5026035;28;20076;-91
2021/09/02 00:49:30;;;;;;;20.40;12.85;;;9.40;99.90;;;;;;5021738;28;20050;-92
2021/09/02 00:52:29;;;;;;;18.27;12.23;;;9.30;99.90;;;;;;4998969;28;20150;-92
2021/09/02 00:55:17;;;;;;;15.75;11.82;;;9.30;99.90;;;;;;5010689;28;20081;-91
2021/09/02 00:58:05;;;;;;;15.30;11.77;;;9.30;99.90;;;;;;5024188;28;20053;-92
2021/09/02 01:00:53;;;;;;;17.90;12.43;;;9.20;99.90;;;;;;5037456;28;20103;-91
2021/09/02 01:03:40;;;;;;;23.33;14.75;;;9.30;99.90;;;;;;5028068;28;20042;-90
2021/09/02 01:06:30;;;;;;;23.92;16.30;;;9.30;99.90;;;;;;5043480;28;20041;-92
2021/09/02 01:09:18;;;;;;;20.88;13.40;;;9.30;99.90;;;;;;5015089;28;20069;-91
2021/09/02 01:12:26;;;;;;;20.65;14.32;;;9.30;99.90;;;;;;5033967;28;20141;-90
2021/09/02 01:15:19;;;;;;;17.88;12.88;;;9.30;99.90;;;;;;5028793;28;20066;-91
2021/09/02 01:18:10;;;;;;;18.48;13.80;;;9.20;99.90;;;;;;5041814;28;20089;-94
2021/09/02 01:21:03;;;;;;;20.02;13.18;;;9.20;99.90;;;;;;5044868;28;20052;-91
2021/09/02 01:23:53;;;;;;;18.27;12.93;;;9.10;99.90;;;;;;5056898;28;20044;-89
2021/09/02 01:26:42;;;;;;;19.80;12.70;;;9.10;99.90;;;;;;5064874;28;20137;-90
2021/09/02 01:29:29;;;;;;;18.55;12.43;;;9.00;99.90;;;;;;5067460;28;20121;-91
2021/09/02 01:32:18;;;;;;;18.38;13.10;;;9.00;99.90;;;;;;5066892;28;20052;-91
2021/09/02 01:35:09;;;;;;;21.13;13.57;;;9.00;99.90;;;;;;5076649;28;20072;-89
2021/09/02 01:37:58;;;;;;;20.23;14.02;;;9.00;99.90;;;;;;5072913;28;20060;-91
2021/09/02 01:40:47;;;;;;;23.90;13.38;;;8.90;99.90;;;;;;5065824;28;20201;-91
2021/09/02 01:43:37;;;;;;;19.70;14.23;;;8.90;99.90;;;;;;5067169;28;20041;-90
2021/09/02 01:46:24;;;;;;;25.15;16.00;;;8.80;99.90;;;;;;5074729;28;20058;-91
2021/09/02 01:49:14;;;;;;;27.00;16.67;;;8.90;99.90;;;;;;5066843;28;20052;-90
2021/09/02 01:52:01;;;;;;;21.38;14.98;;;8.90;99.90;;;;;;5063546;28;20196;-91
2021/09/02 01:54:49;;;;;;;24.75;15.70;;;9.00;99.90;;;;;;5060072;28;20128;-93
2021/09/02 01:57:42;;;;;;;25.25;15.35;;;8.90;99.90;;;;;;5069717;28;20063;-90
2021/09/02 02:00:29;;;;;;;20.02;14.90;;;8.90;99.90;;;;;;5083196;28;20137;-91
2021/09/02 02:03:17;;;;;;;19.95;14.35;;;8.80;99.90;;;;;;5080069;28;20049;-90
2021/09/02 02:06:05;;;;;;;21.42;13.98;;;8.80;99.90;;;;;;5082606;28;20103;-89
2021/09/02 02:08:54;;;;;;;19.50;14.00;;;8.80;99.90;;;;;;5062155;28;20037;-91
2021/09/02 02:11:43;;;;;;;17.38;13.23;;;8.70;99.90;;;;;;5081317;28;20051;-92
2021/09/02 02:14:33;;;;;;;17.83;13.55;;;8.60;99.90;;;;;;5081541;28;20084;-90
2021/09/02 02:17:23;;;;;;;21.40;13.93;;;8.60;99.90;;;;;;5083380;28;20044;-90
2021/09/02 02:20:12;;;;;;;20.23;14.00;;;8.60;99.90;;;;;;5061539;28;20072;-89
2021/09/02 02:23:04;;;;;;;19.00;13.32;;;8.60;99.90;;;;;;5061034;28;20141;-89
2021/09/02 02:25:51;;;;;;;19.13;14.18;;;8.60;99.90;;;;;;5078902;28;20079;-91
2021/09/02 02:28:40;;;;;;;23.50;15.60;;;8.60;99.90;;;;;;5046642;28;20050;-91
2021/09/02 02:31:28;;;;;;;19.85;13.90;;;8.70;99.90;;;;;;5060900;28;20045;-91
2021/09/02 02:34:18;;;;;;;25.60;14.63;;;8.70;99.90;;;;;;5081675;28;20174;-90
2021/09/02 02:37:06;;;;;;;22.90;15.38;;;8.60;99.90;;;;;;5076967;28;20105;-91
2021/09/02 02:39:53;;;;;;;24.73;16.10;;;8.60;99.90;;;;;;5079894;28;20157;-91
2021/09/02 02:42:41;;;;;;;23.58;15.90;;;8.60;99.90;;;;;;5081925;28;20478;-91
2021/09/02 02:45:28;;;;;;;24.63;16.35;;;8.60;99.90;;;;;;5067187;28;20048;-93
2021/09/02 02:48:20;;;;;;;23.98;16.58;;;8.60;99.90;;;;;;5073757;28;20094;-90
2021/09/02 02:51:10;;;;;;;24.00;16.73;;;8.50;99.90;;;;;;5039838;28;20056;-92
2021/09/02 02:53:57;;;;;;;25.98;17.10;;;8.60;99.90;;;;;;5076277;28;20136;-91
2021/09/02 02:56:49;;;;;;;27.05;17.30;;;8.50;99.90;;;;;;5065548;28;20124;-92
2021/09/02 02:59:39;;;;;;;25.63;16.85;;;8.50;99.90;;;;;;5079796;28;20052;-92
2021/09/02 03:02:26;;;;;;;28.48;17.40;;;8.50;99.90;;;;;;5069616;28;20095;-90
2021/09/02 03:05:14;;;;;;;26.17;17.95;;;8.40;99.90;;;;;;5073018;28;20070;-91
2021/09/02 03:08:03;;;;;;;29.27;18.45;;;8.40;99.90;;;;;;5059062;28;20172;-90
2021/09/02 03:10:52;;;;;;;24.02;16.63;;;8.60;99.90;;;;;;5072501;28;20036;-91
2021/09/02 03:13:40;;;;;;;26.60;17.17;;;8.60;99.90;;;;;;5083648;28;20056;-92
2021/09/02 03:16:30;;;;;;;26.48;18.50;;;8.50;99.90;;;;;;5079700;28;20055;-92
2021/09/02 03:19:17;;;;;;;32.80;17.05;;;8.50;99.90;;;;;;5092206;28;20064;-91
2021/09/02 03:22:04;;;;;;;24.35;17.20;;;8.40;99.90;;;;;;5096972;28;20071;-91
2021/09/02 03:24:51;;;;;;;27.98;19.17;;;8.40;99.90;;;;;;5042328;28;20049;-92
2021/09/02 03:27:41;;;;;;;27.40;17.60;;;8.30;99.90;;;;;;5080888;28;20076;-91
2021/09/02 03:30:29;;;;;;;27.40;18.55;;;8.30;99.90;;;;;;5091792;28;20049;-93
2021/09/02 03:33:20;;;;;;;25.75;17.60;;;8.30;99.90;;;;;;5069010;28;20048;-89
2021/09/02 03:36:08;;;;;;;28.90;18.58;;;8.20;99.90;;;;;;5081888;28;20188;-90
2021/09/02 03:38:59;;;;;;;31.17;19.40;;;8.20;99.90;;;;;;5076872;28;20135;-90
2021/09/02 03:41:47;;;;;;;31.58;19.58;;;8.10;99.90;;;;;;5050541;28;20438;-91
2021/09/02 03:44:36;;;;;;;32.00;21.02;;;8.20;99.90;;;;;;5065299;28;20090;-91
2021/09/02 03:47:24;;;;;;;32.33;19.50;;;8.20;99.90;;;;;;5083040;28;20136;-90
2021/09/02 03:50:12;;;;;;;25.92;17.92;;;8.30;99.90;;;;;;5051036;28;20048;-90
2021/09/02 03:53:01;;;;;;;28.42;18.67;;;8.30;99.90;;;;;;5078377;28;20098;-91
2021/09/02 03:55:48;;;;;;;25.25;18.17;;;8.20;99.90;;;;;;5055537;28;20040;-92
2021/09/02 03:58:40;;;;;;;28.10;17.55;;;8.10;99.90;;;;;;5067310;28;20123;-91
2021/09/02 04:01:28;;;;;;;26.63;17.65;;;8.10;99.90;;;;;;5071894;28;20719;-90
2021/09/02 04:04:56;;;;;;;28.00;18.17;;;8.00;99.90;;;;;;5080963;28;20048;-91
2021/09/02 04:13:35;;;;;;;;;;;;;;;;;;;;;
2021/09/02 04:21:53;;;;;;;;;;;;;;;;;;;;;
2021/09/02 04:28:59;;;;;;;;;;;;;;;;;;;;;
2021/09/02 04:39:44;;;;;;;45.78;23.83;;;7.70;99.90;;;;;;4755075;30;20043;-90
2021/09/02 04:46:25;;;;;;;36.78;24.08;;;7.90;99.90;;;;;;4744644;30;20207;-90
2021/09/02 05:05:52;;;;;;;42.83;23.50;;;7.80;99.90;;;;;;4778879;30;20047;-89
2021/09/02 05:10:02;;;;;;;;;;;;;;;;;;;;;
2021/09/02 05:14:42;;;;;;;;;;;;;;;;;;;;;
2021/09/02 05:17:21;;;;;;;49.08;29.95;;;8.10;99.90;;;;;;4775851;29;20230;-91
2021/09/02 05:20:41;;;;;;;;;;;;;;;;;;;;;
2021/09/02 05:23:44;;;;;;;55.92;33.15;;;8.50;99.90;;;;;;4818380;29;20408;-94
2021/09/02 05:27:05;;;;;;;58.42;36.97;;;8.50;99.90;;;;;;4841945;29;20077;-90
2021/09/02 05:30:18;;;;;;;;;;;;;;;;;;;;;
2021/09/02 05:38:22;;;;;;;56.33;33.95;;;8.90;99.90;;;;;;4866050;29;20060;-89
2021/09/02 05:41:48;;;;;;;57.50;34.75;;;9.00;99.90;;;;;;4885688;29;20055;-89
2021/09/02 05:49:14;;;;;;;59.15;33.85;;;9.20;99.90;;;;;;4810036;29;20042;-90
2021/09/02 05:52:01;;;;;;;53.85;32.58;;;9.30;99.90;;;;;;4805540;29;20051;-90
2021/09/02 05:54:54;;;;;;;52.97;32.53;;;9.40;99.90;;;;;;4824864;29;20128;-85
2021/09/02 05:57:44;;;;;;;47.75;32.65;;;9.60;99.90;;;;;;4804699;29;20150;-85
2021/09/02 06:00:32;;;;;;;65.57;36.97;;;9.70;99.90;;;;;;4803160;29;20145;-83
2021/09/02 06:03:20;;;;;;;58.17;34.30;;;9.80;99.90;;;;;;4935839;29;20061;-83
2021/09/02 06:06:11;;;;;;;58.70;35.40;;;9.90;99.90;;;;;;4955096;29;20377;-84
2021/09/02 06:09:01;;;;;;;53.03;33.17;;;10.00;99.90;;;;;;4953497;28;20169;-91
2021/09/02 06:11:52;;;;;;;52.17;30.92;;;10.10;99.90;;;;;;4948679;29;20062;-84
2021/09/02 06:14:40;;;;;;;51.25;31.20;;;10.10;99.90;;;;;;4947681;28;20079;-90
2021/09/02 06:17:30;;;;;;;49.53;31.27;;;10.20;99.90;;;;;;4952708;29;20130;-90
2021/09/02 06:20:17;;;;;;;37.13;27.02;;;10.20;99.90;;;;;;4954644;29;20488;-88
2021/09/02 06:23:05;;;;;;;37.20;26.92;;;10.30;99.90;;;;;;4956408;29;20066;-88
2021/09/02 06:25:53;;;;;;;43.35;27.85;;;10.40;99.90;;;;;;4957042;28;20110;-89
2021/09/02 06:28:42;;;;;;;35.28;24.35;;;10.50;99.90;;;;;;4945057;29;20152;-90
2021/09/02 06:31:31;;;;;;;36.85;24.50;;;10.70;99.90;;;;;;4965238;28;20196;-88
2021/09/02 06:34:18;;;;;;;29.05;20.65;;;10.90;99.90;;;;;;4958218;28;20059;-88
2021/09/02 06:37:08;;;;;;;26.20;18.58;;;11.10;99.90;;;;;;4953607;29;20047;-89
2021/09/02 06:39:56;;;;;;;22.23;16.38;;;11.30;99.90;;;;;;4941761;29;20071;-88
2021/09/02 06:42:43;;;;;;;21.70;15.18;;;11.50;99.90;;;;;;4944679;29;20059;-90
2021/09/02 06:45:31;;;;;;;16.17;12.80;;;12.00;99.90;;;;;;4922370;29;20078;-89
2021/09/02 06:48:18;;;;;;;16.83;11.43;;;12.50;99.90;;;;;;4941873;28;20048;-89
2021/09/02 06:51:08;;;;;;;13.57;10.50;;;13.00;99.90;;;;;;4954659;29;20170;-88
2021/09/02 06:53:55;;;;;;;13.80;10.25;;;13.50;99.90;;;;;;4941833;29;20519;-90
2021/09/02 06:56:43;;;;;;;12.90;9.77;;;13.80;99.90;;;;;;4947836;29;20226;-89
2021/09/02 06:59:30;;;;;;;12.07;9.38;;;14.30;99.90;;;;;;4961300;29;20043;-91
2021/09/02 07:02:17;;;;;;;13.13;8.75;;;14.80;99.90;;;;;;4924639;29;20146;-90
2021/09/02 07:05:06;;;;;;;10.95;8.43;;;15.10;99.90;;;;;;4973194;29;20054;-90
2021/09/02 07:07:56;;;;;;;15.18;8.88;;;15.30;99.90;;;;;;4978775;28;20040;-92
2021/09/02 07:11:01;;;;;;;12.52;8.93;;;15.60;99.90;;;;;;4955939;29;20122;-90
2021/09/02 07:13:48;;;;;;;12.57;8.85;;;15.60;99.90;;;;;;4934712;29;20043;-91
2021/09/02 07:16:38;;;;;;;12.45;9.27;;;15.50;99.90;;;;;;4940391;29;20051;-89
2021/09/02 07:19:27;;;;;;;13.65;8.55;;;15.30;99.90;;;;;;4954344;28;20163;-89
2021/09/02 07:22:21;;;;;;;12.27;8.75;;;15.10;99.90;;;;;;4965911;28;20067;-88
2021/09/02 07:25:09;;;;;;;12.35;9.20;;;15.00;99.90;;;;;;4954543;29;20047;-92
2021/09/02 07:27:58;;;;;;;14.10;9.43;;;14.90;99.90;;;;;;4955281;29;20130;-90
2021/09/02 07:30:45;;;;;;;14.52;9.35;;;14.70;99.90;;;;;;4964125;28;20134;-89
2021/09/02 07:33:38;;;;;;;14.60;9.02;;;14.50;99.90;;;;;;4960722;28;20080;-90
2021/09/02 07:36:26;;;;;;;10.20;8.43;;;14.50;99.90;;;;;;4956159;29;20063;-89
2021/09/02 07:39:33;;;;;;;12.82;9.10;;;14.60;99.90;;;;;;4958424;28;20047;-92
2021/09/02 07:42:24;;;;;;;11.73;8.73;;;14.80;99.90;;;;;;4955993;29;20118;-90
2021/09/02 07:45:12;;;;;;;13.32;9.40;;;15.00;99.90;;;;;;4956108;29;20589;-90
2021/09/02 07:48:00;;;;;;;12.98;9.15;;;15.10;99.90;;;;;;4963225;28;20046;-91
2021/09/02 07:50:48;;;;;;;11.98;9.75;;;15.10;99.90;;;;;;4957218;29;20050;-90
2021/09/02 07:53:36;;;;;;;13.20;9.85;;;15.30;99.90;;;;;;4956298;29;20114;-88
2021/09/02 07:56:24;;;;;;;14.63;9.13;;;15.30;99.90;;;;;;4962663;28;20134;-91
2021/09/02 07:59:11;;;;;;;16.55;8.57;;;15.50;99.90;;;;;;4950667;28;20445;-88
2021/09/02 08:02:00;;;;;;;11.10;8.35;;;15.70;99.90;;;;;;4953942;29;20051;-92
2021/09/02 08:04:50;;;;;;;12.60;8.45;;;16.10;99.90;;;;;;4935452;29;20047;-89
2021/09/02 08:07:51;;;;;;;13.80;8.77;;;16.80;99.90;;;;;;4942058;29;20130;-90
2021/09/02 08:10:39;;;;;;;13.23;8.10;;;17.80;99.90;;;;;;4946630;29;20047;-92
2021/09/02 08:13:26;;;;;;;12.13;8.05;;;18.90;99.90;;;;;;4955449;29;20047;-88
2021/09/02 08:16:15;;;;;;;11.18;7.43;;;19.40;99.90;;;;;;4961750;28;20051;-90
2021/09/02 08:19:04;;;;;;;9.02;7.38;;;20.10;99.90;;;;;;4956508;28;20055;-91
2021/09/02 08:21:51;;;;;;;9.23;6.85;;;20.60;99.90;;;;;;4946330;29;20090;-89
2021/09/02 08:24:38;;;;;;;11.43;7.15;;;21.40;97.80;;;;;;4956176;29;20047;-92
2021/09/02 08:27:26;;;;;;;9.75;6.75;;;21.70;95.70;;;;;;4966339;28;20097;-91
2021/09/02 08:30:18;;;;;;;8.25;6.25;;;22.10;92.50;;;;;;4971461;28;20079;-90
2021/09/02 08:33:09;;;;;;;11.38;6.97;;;21.80;93.60;;;;;;4972490;28;20103;-91
2021/09/02 08:35:56;;;;;;;10.57;6.70;;;22.30;93.00;;;;;;4972990;28;20142;-90
2021/09/02 08:38:48;;;;;;;10.50;6.95;;;22.80;89.10;;;;;;4962145;28;20047;-90
2021/09/02 08:41:35;;;;;;;7.32;6.53;;;22.80;87.90;;;;;;4973499;29;20066;-90
2021/09/02 08:44:24;;;;;;;9.27;6.72;;;23.30;86.90;;;;;;4974544;29;20110;-88
2021/09/02 08:47:14;;;;;;;12.02;7.40;;;23.40;82.90;;;;;;4948576;29;20123;-90
2021/09/02 08:50:06;;;;;;;8.30;5.95;;;23.50;81.90;;;;;;4973388;29;20043;-91
2021/09/02 08:52:54;;;;;;;10.77;6.65;;;23.80;78.80;;;;;;4973947;29;20102;-91
2021/09/02 08:55:41;;;;;;;9.82;6.90;;;24.00;78.20;;;;;;4962097;29;20067;-93
2021/09/02 08:58:31;;;;;;;11.63;6.22;;;24.10;75.90;;;;;;4969634;28;20061;-91
2021/09/02 09:01:18;;;;;;;6.70;5.85;;;24.30;77.00;;;;;;4957362;28;20043;-91
2021/09/02 09:04:11;;;;;;;6.70;5.53;;;24.60;74.00;;;;;;4940391;29;20039;-90
2021/09/02 09:06:58;;;;;;;7.82;6.18;;;25.20;73.80;;;;;;4955697;28;20121;-93
2021/09/02 09:10:01;;;;;;;6.93;5.73;;;25.40;71.30;;;;;;4931757;29;20436;-91
2021/09/02 09:13:05;;;;;;;8.95;6.38;;;25.70;69.40;;;;;;4950229;28;20480;-91
2021/09/02 09:15:53;;;;;;;6.80;6.05;;;25.00;70.00;;;;;;4960451;29;20058;-90
2021/09/02 09:18:47;;;;;;;6.95;5.70;;;25.10;67.60;;;;;;4977138;28;20046;-91
2021/09/02 09:21:58;;;;;;;8.93;6.10;;;25.20;69.70;;;;;;4969246;28;20031;-91
2021/09/02 09:24:58;;;;;;;9.32;6.22;;;25.40;69.00;;;;;;4971449;29;20039;-92
2021/09/02 09:27:57;;;;;;;6.82;5.88;;;25.90;65.30;;;;;;4962091;29;20043;-89
2021/09/02 09:30:44;;;;;;;11.80;6.57;;;26.10;62.30;;;;;;4980707;28;20035;-90
2021/09/02 09:33:58;;;;;;;6.95;5.55;;;26.20;63.30;;;;;;4957272;28;20027;-91
2021/09/02 09:36:47;;;;;;;8.65;6.35;;;26.50;62.00;;;;;;4940771;29;20171;-88
2021/09/02 09:39:49;;;;;;;8.45;6.03;;;26.80;60.70;;;;;;4947294;29;20046;-92
2021/09/02 09:42:37;;;;;;;8.38;5.60;;;26.80;60.60;;;;;;4939519;29;20044;-88
2021/09/02 09:45:34;;;;;;;9.27;6.03;;;26.30;61.00;;;;;;4952484;29;20628;-87
2021/09/02 09:48:34;;;;;;;6.35;5.25;;;26.20;60.90;;;;;;4952143;28;20055;-91
2021/09/02 09:51:23;;;;;;;13.50;5.65;;;26.10;63.10;;;;;;4949755;29;20409;-89
2021/09/02 09:54:11;;;;;;;7.32;5.30;;;26.50;60.20;;;;;;4959717;29;20055;-91
2021/09/02 09:56:58;;;;;;;7.07;5.47;;;26.50;60.70;;;;;;4941887;28;20127;-91
2021/09/02 09:59:46;;;;;;;7.68;5.30;;;26.70;60.60;;;;;;4949196;29;20059;-89
2021/09/02 10:02:36;;;;;;;6.25;4.70;;;26.70;60.00;;;;;;4924695;29;20118;-90
2021/09/02 10:05:28;;;;;;;6.45;5.32;;;27.10;58.50;;;;;;4952899;29;20043;-89
2021/09/02 10:08:20;;;;;;;7.70;5.65;;;26.70;58.60;;;;;;4933915;29;20138;-89
2021/09/02 10:11:12;;;;;;;8.68;5.45;;;27.00;57.50;;;;;;4953890;28;20162;-89
2021/09/02 10:14:02;;;;;;;7.40;5.15;;;26.60;59.00;;;;;;4957426;28;20058;-90
2021/09/02 10:16:49;;;;;;;7.65;5.88;;;26.70;58.80;;;;;;4960013;28;20039;-93
2021/09/02 10:19:37;;;;;;;12.05;5.50;;;27.00;58.80;;;;;;4941350;29;20039;-91
2021/09/02 10:22:27;;;;;;;6.75;6.05;;;27.30;57.90;;;;;;4954207;29;20178;-89
2021/09/02 10:25:33;;;;;;;10.52;6.00;;;27.20;58.80;;;;;;4955255;29;20110;-90
2021/09/02 10:28:34;;;;;;;11.73;6.22;;;27.10;57.60;;;;;;4947079;28;20063;-89
2021/09/02 10:31:23;;;;;;;6.97;5.47;;;26.50;59.10;;;;;;4957913;29;20062;-92
2021/09/02 10:34:29;;;;;;;8.52;5.75;;;26.70;59.90;;;;;;4958968;29;20062;-92
2021/09/02 10:37:35;;;;;;;6.45;5.00;;;27.30;58.50;;;;;;4956186;28;20054;-90
2021/09/02 10:40:23;;;;;;;9.45;5.05;;;28.10;58.30;;;;;;4957700;29;20040;-91
2021/09/02 10:43:15;;;;;;;7.55;6.07;;;28.70;55.80;;;;;;4957014;29;20378;-90
2021/09/02 10:46:04;;;;;;;6.32;5.05;;;28.50;54.20;;;;;;4957545;29;20122;-91
2021/09/02 10:48:52;;;;;;;7.45;5.40;;;28.80;55.50;;;;;;4939322;29;20044;-89
2021/09/02 10:51:42;;;;;;;7.72;5.28;;;28.50;52.50;;;;;;4951627;29;20673;-89
2021/09/02 10:54:32;;;;;;;8.07;4.85;;;27.50;54.90;;;;;;4948143;28;20094;-90
2021/09/02 10:57:19;;;;;;;6.20;5.03;;;27.50;54.20;;;;;;4939707;28;20142;-91
2021/09/02 11:00:28;;;;;;;6.18;4.53;;;28.30;55.50;;;;;;4954289;28;20047;-90
2021/09/02 11:03:26;;;;;;;7.20;5.07;;;28.60;54.80;;;;;;4957363;29;20047;-90
2021/09/02 11:06:19;;;;;;;7.10;5.18;;;28.60;51.80;;;;;;4965410;28;20044;-90
2021/09/02 11:09:10;;;;;;;6.05;5.00;;;29.30;51.20;;;;;;4956977;29;20047;-91
2021/09/02 11:12:02;;;;;;;6.60;4.87;;;29.30;52.80;;;;;;4956352;29;20555;-93
2021/09/02 11:14:51;;;;;;;7.57;4.88;;;29.70;52.00;;;;;;4958097;28;20198;-93
2021/09/02 11:17:48;;;;;;;8.57;5.13;;;29.20;52.10;;;;;;4940703;29;20139;-91
2021/09/02 11:20:56;;;;;;;8.43;5.30;;;29.60;51.50;;;;;;4953214;28;20800;-92
2021/09/02 11:23:45;;;;;;;8.07;5.10;;;29.40;50.00;;;;;;4967383;28;20096;-91
2021/09/02 11:26:39;;;;;;;7.20;5.20;;;28.60;51.20;;;;;;4953395;29;20516;-90
2021/09/02 11:29:26;;;;;;;6.20;5.13;;;27.90;51.80;;;;;;4956406;28;20382;-90
2021/09/02 11:32:13;;;;;;;6.95;4.82;;;28.20;52.80;;;;;;4956968;28;20151;-91
2021/09/02 11:35:02;;;;;;;5.47;4.45;;;28.40;51.70;;;;;;4957335;28;20054;-90
2021/09/02 11:37:51;;;;;;;4.82;4.05;;;28.90;51.20;;;;;;4960056;28;20106;-90
2021/09/02 11:40:39;;;;;;;5.82;4.13;;;28.60;48.80;;;;;;4942816;28;20189;-92
2021/09/02 11:43:26;;;;;;;5.43;4.25;;;28.70;49.10;;;;;;4950518;29;20079;-91
2021/09/02 11:46:15;;;;;;;6.95;3.72;;;29.30;48.50;;;;;;4954598;29;20418;-92
2021/09/02 11:49:09;;;;;;;4.60;4.00;;;29.00;48.20;;;;;;4945231;29;20059;-92
2021/09/02 11:51:58;;;;;;;6.00;3.80;;;28.80;49.20;;;;;;4957044;29;20130;-90
2021/09/02 11:54:45;;;;;;;4.70;3.97;;;29.30;48.20;;;;;;4943616;29;20512;-89
2021/09/02 11:57:36;;;;;;;4.60;4.05;;;29.90;46.50;;;;;;4942140;29;20110;-89
2021/09/02 12:00:24;;;;;;;6.00;4.50;;;29.30;46.90;;;;;;4956627;29;20043;-89
2021/09/02 12:03:13;;;;;;;5.55;3.58;;;29.00;47.60;;;;;;4959896;28;20078;-91
2021/09/02 12:06:01;;;;;;;4.10;3.40;;;29.70;48.80;;;;;;4943027;28;20050;-92
2021/09/02 12:08:49;;;;;;;6.05;3.78;;;30.20;45.30;;;;;;4958133;29;20462;-90
2021/09/02 12:11:38;;;;;;;5.05;3.97;;;29.80;46.40;;;;;;4935906;29;20072;-91
2021/09/02 12:14:31;;;;;;;4.00;3.60;;;29.60;46.60;;;;;;4932172;28;20107;-88
2021/09/02 12:17:18;;;;;;;;;;;29.80;45.10;;;;;;4949770;29;20090;-91
2021/09/02 12:20:05;;;;;;;6.72;4.38;;;29.50;44.60;;;;;;4947941;28;19923;-92
2021/09/02 12:22:53;;;;;;;5.35;3.75;;;29.50;45.70;;;;;;4951213;28;20043;-88
2021/09/02 12:26:00;;;;;;;8.63;3.65;;;29.90;45.10;;;;;;4911079;29;20051;-92
2021/09/02 12:28:55;;;;;;;4.70;3.83;;;30.90;44.30;;;;;;4930231;29;20055;-90
2021/09/02 12:31:43;;;;;;;4.10;3.67;;;31.90;45.40;;;;;;4918421;29;20101;-89
2021/09/02 12:34:31;;;;;;;7.80;3.50;;;31.10;42.40;;;;;;4937064;29;20514;-89
2021/09/02 12:37:19;;;;;;;5.88;3.70;;;30.80;43.60;;;;;;4936365;29;20104;-92
2021/09/02 12:40:32;;;;;;;4.15;3.75;;;31.40;43.00;;;;;;4936816;29;20043;-90
2021/09/02 12:43:20;;;;;;;3.70;3.40;;;31.00;42.80;;;;;;4923600;29;20075;-90
2021/09/02 12:46:07;;;;;;;6.82;3.67;;;30.80;44.60;;;;;;4947821;28;20130;-88
2021/09/02 12:49:14;;;;;;;6.13;3.85;;;30.50;43.90;;;;;;4918506;29;20076;-91
2021/09/02 12:52:20;;;;;;;4.57;3.35;;;30.80;43.60;;;;;;4933098;29;20151;-89
2021/09/02 12:55:40;;;;;;;5.60;3.80;;;31.50;42.80;;;;;;4933499;29;20207;-89
2021/09/02 12:58:31;;;;;;;7.20;3.85;;;31.60;42.00;;;;;;4923996;29;20052;-88
2021/09/02 13:01:18;;;;;;;4.40;3.50;;;30.70;42.80;;;;;;4930718;29;20054;-90
2021/09/02 13:04:09;;;;;;;3.53;3.22;;;31.20;42.60;;;;;;4902550;29;20063;-91
2021/09/02 13:06:56;;;;;;;5.13;3.90;;;31.30;42.50;;;;;;4939611;29;20358;-90
2021/09/02 13:09:44;;;;;;;7.20;3.63;;;31.50;41.70;;;;;;4935026;28;20047;-91
2021/09/02 13:12:32;;;;;;;3.92;3.33;;;31.80;41.70;;;;;;4950358;29;20202;-93
2021/09/02 13:15:20;;;;;;;7.43;3.60;;;31.70;39.70;;;;;;4955602;29;20118;-93
2021/09/02 13:18:11;;;;;;;5.50;3.63;;;31.80;39.80;;;;;;4942757;29;20311;-89
2021/09/02 13:21:02;;;;;;;5.75;3.80;;;31.80;40.50;;;;;;4941787;28;20047;-89
2021/09/02 13:23:49;;;;;;;7.75;3.65;;;30.70;43.30;;;;;;4943303;29;20068;-90
2021/09/02 13:26:36;;;;;;;3.67;3.17;;;30.20;43.50;;;;;;4939918;29;20074;-91
2021/09/02 13:29:26;;;;;;;4.45;3.70;;;30.40;43.50;;;;;;4954394;29;20055;-88
2021/09/02 13:32:15;;;;;;;4.40;3.60;;;30.50;43.40;;;;;;4953589;29;20051;-91
2021/09/02 13:35:04;;;;;;;4.00;3.30;;;30.30;44.40;;;;;;4945199;29;20046;-90
2021/09/02 13:37:54;;;;;;;5.00;3.72;;;29.90;43.90;;;;;;4964669;28;20102;-92
2021/09/02 13:40:43;;;;;;;5.50;3.80;;;30.20;44.50;;;;;;4961512;28;20078;-90
2021/09/02 13:43:31;;;;;;;4.72;3.75;;;30.70;44.50;;;;;;4955689;28;20058;-89
2021/09/02 13:46:18;;;;;;;4.70;3.88;;;31.10;41.40;;;;;;4954074;28;20532;-90
2021/09/02 13:49:10;;;;;;;5.05;4.05;;;31.10;42.30;;;;;;4954353;29;20115;-90
2021/09/02 13:51:59;;;;;;;4.90;3.90;;;30.90;43.10;;;;;;4949569;29;20054;-93
2021/09/02 13:54:50;;;;;;;5.70;3.65;;;31.20;40.30;;;;;;4954732;28;20055;-92
2021/09/02 13:57:37;;;;;;;5.28;3.38;;;31.50;41.90;;;;;;4954801;29;20092;-91
2021/09/02 14:00:24;;;;;;;6.18;3.65;;;31.40;42.80;;;;;;4960519;28;20130;-93
2021/09/02 14:03:14;;;;;;;3.90;3.50;;;30.90;41.80;;;;;;4956211;29;20047;-90
2021/09/02 14:06:01;;;;;;;6.55;3.72;;;30.90;41.50;;;;;;4952368;28;20062;-91
2021/09/02 14:08:49;;;;;;;9.80;4.13;;;30.80;41.80;;;;;;4954494;28;20087;-88
2021/09/02 14:11:36;;;;;;;5.03;3.80;;;30.00;42.50;;;;;;4946109;29;20149;-89
2021/09/02 14:14:24;;;;;;;5.63;3.80;;;30.60;41.60;;;;;;4957175;29;20043;-92
2021/09/02 14:17:14;;;;;;;5.63;3.85;;;31.30;40.10;;;;;;4950352;29;20066;-91
2021/09/02 14:20:02;;;;;;;4.10;3.53;;;31.80;40.00;;;;;;4939838;29;20119;-90
2021/09/02 14:22:50;;;;;;;5.35;3.78;;;31.10;40.70;;;;;;4971782;29;20059;-89
2021/09/02 14:25:38;;;;;;;3.97;3.58;;;30.10;42.60;;;;;;4972194;28;20055;-89
2021/09/02 14:28:35;;;;;;;6.35;3.60;;;30.50;42.80;;;;;;4964442;29;20032;-90
2021/09/02 14:31:22;;;;;;;4.78;3.55;;;30.50;41.80;;;;;;4961676;29;20102;-89
2021/09/02 14:34:10;;;;;;;4.78;3.97;;;30.70;41.80;;;;;;4962348;28;20043;-89
2021/09/02 14:37:00;;;;;;;8.07;3.58;;;30.20;43.20;;;;;;4964864;28;20047;-88
2021/09/02 14:39:47;;;;;;;6.32;3.85;;;29.50;44.50;;;;;;4978362;28;20043;-86
2021/09/02 14:42:35;;;;;;;5.28;3.80;;;30.10;44.40;;;;;;4976270;28;20111;-88
2021/09/02 14:45:23;;;;;;;4.40;3.53;;;30.10;43.00;;;;;;4943925;29;20051;-90
2021/09/02 14:48:10;;;;;;;5.15;3.97;;;30.30;44.40;;;;;;4971489;28;20059;-87
2021/09/02 14:51:00;;;;;;;5.47;3.53;;;30.10;42.50;;;;;;4963425;28;20122;-90
2021/09/02 14:53:50;;;;;;;4.82;3.58;;;29.90;43.70;;;;;;4957220;28;20390;-90
2021/09/02 14:56:37;;;;;;;6.63;3.80;;;30.10;44.40;;;;;;4968513;28;20083;-88
2021/09/02 14:59:25;;;;;;;4.25;3.70;;;30.50;43.70;;;;;;4976035;28;20182;-90
2021/09/02 15:02:15;;;;;;;4.80;4.15;;;30.50;41.60;;;;;;4924765;29;20143;-90
2021/09/02 15:05:06;;;;;;;6.35;3.83;;;30.10;42.50;;;;;;4946804;29;20047;-90
2021/09/02 15:07:53;;;;;;;6.85;4.20;;;29.80;43.80;;;;;;4968168;28;20061;-89
2021/09/02 15:10:42;;;;;;;4.30;3.90;;;29.60;43.50;;;;;;4936317;28;20064;-90
2021/09/02 15:13:30;;;;;;;7.25;3.97;;;29.60;45.50;;;;;;4945214;28;20142;-92
2021/09/02 15:16:20;;;;;;;4.70;3.53;;;29.60;43.90;;;;;;4940581;29;20047;-92
2021/09/02 15:19:09;;;;;;;4.90;3.60;;;29.30;44.40;;;;;;4953692;29;20047;-91
2021/09/02 15:21:56;;;;;;;6.65;3.50;;;29.50;44.70;;;;;;4951773;29;20158;-93
2021/09/02 15:24:43;;;;;;;4.63;3.33;;;29.80;44.20;;;;;;4975114;28;20049;-92
2021/09/02 15:27:30;;;;;;;7.43;3.78;;;29.70;44.60;;;;;;4945468;29;20111;-92
2021/09/02 15:30:20;;;;;;;4.68;3.67;;;29.60;44.80;;;;;;4967141;28;20051;-91
2021/09/02 15:33:07;;;;;;;6.45;3.92;;;28.80;44.50;;;;;;4955956;28;20039;-91
2021/09/02 15:35:59;;;;;;;6.35;4.40;;;28.60;45.50;;;;;;4960271;28;20035;-92
2021/09/02 15:38:46;;;;;;;5.05;3.95;;;28.30;46.60;;;;;;4957391;28;20067;-90
2021/09/02 15:41:33;;;;;;;4.85;4.35;;;28.10;47.10;;;;;;4960040;28;20081;-89
2021/09/02 15:44:20;;;;;;;8.65;4.28;;;27.70;47.60;;;;;;4959600;29;20047;-86
2021/09/02 15:47:08;;;;;;;5.15;3.95;;;27.60;47.60;;;;;;4957045;28;20559;-91
2021/09/02 15:49:57;;;;;;;4.45;3.53;;;28.00;46.90;;;;;;4959288;29;20104;-90